Ringtown, Pennsylvania
Current Conditions -  °F | °C
As of 4:35 AM on Monday 24 Nov 2014 (Local Time) from KHZL Reporting Station
Moderate Rain Moderate Rain  
Wind Chill: 13°   Ceiling: 500
Heat Index: 13°   Visibility: 5mi
Dew Point: 12°   Wind: 12mph
Humidity: 94%   Direction: 150°SSE
Pressure: 29.63"   Gusts: 21mph
Location:  40.86°N, 76.23°W
Report Text: KHZL 240935Z AUTO 15010G18KT 5SM RA OVC005 13/12 A2963 RMK AO2 P0014
Loading
Personal Weather Stations






























Interactive Weather Map New forecast layout! Learn more

10-Day Weather Forecast

Advertisements
Track Severe Weather on mobile